Time;durP1;ratioP1;P1;durP2;ratioP2;P2;SDS_P1;SDS_P2;PMS_P1;PMS_P2;Temp;Humidity;BMP_temperature;BMP_pressure;BME280_temperature;BME280_humidity;BME280_pressure;Samples;Min_cycle;Max_cycle;Signal;HPM_P1;HPM_P2
2021/07/18 00:01:22;;;;;;;6.97;6.23;;;;;;;24.31;49.64;93573.66;833854;71;32646;-78
2021/07/18 00:16:12;;;;;;;7.30;6.70;;;;;;;24.12;50.06;93561.59;833959;71;30839;-77
2021/07/18 00:31:23;;;;;;;9.27;5.97;;;;;;;23.98;50.53;93550.41;828113;71;30167;-75
2021/07/18 00:46:28;;;;;;;8.70;6.07;;;;;;;23.87;50.70;93555.12;827348;71;32716;-79
2021/07/18 01:01:27;;;;;;;7.37;6.67;;;;;;;23.54;51.90;93567.94;827494;71;33180;-77
2021/07/18 01:16:22;;;;;;;7.67;6.97;;;;;;;22.78;54.80;93549.59;827358;71;32713;-77
2021/07/18 01:31:30;;;;;;;8.47;7.67;;;;;;;22.52;56.12;93555.42;833958;71;30174;-75
2021/07/18 01:46:20;;;;;;;10.20;7.83;;;;;;;22.00;57.80;93554.55;827300;71;32646;-76
2021/07/18 02:01:09;;;;;;;9.45;7.60;;;;;;;21.54;59.06;93546.73;828140;71;29699;-75
2021/07/18 02:16:30;;;;;;;8.00;7.30;;;;;;;21.41;59.96;93552.98;827173;71;32782;-75
2021/07/18 02:31:30;;;;;;;9.53;7.60;;;;;;;21.06;61.03;93556.33;827334;71;33246;-75
2021/07/18 02:46:24;;;;;;;7.00;6.37;;;;;;;20.98;60.75;93559.55;827118;71;32704;-76
2021/07/18 03:16:08;;;;;;;8.23;7.40;;;;;;;20.74;61.44;93569.02;833534;71;29810;-79
2021/07/18 03:31:08;;;;;;;8.05;7.25;;;;;;;21.18;60.20;93579.23;828041;71;29718;-76
2021/07/18 03:46:09;;;;;;;9.90;6.70;;;;;;;21.80;58.02;93577.64;827963;71;30338;-76
2021/07/18 04:01:13;;;;;;;6.50;5.90;;;;;;;22.63;55.47;93572.20;829745;71;29657;-82
2021/07/18 04:16:15;;;;;;;7.13;6.57;;;;;;;23.05;55.44;93586.57;827916;71;32651;-74
2021/07/18 04:31:08;;;;;;;7.13;6.53;;;;;;;23.19;55.30;93599.91;828969;71;29582;-77
2021/07/18 04:46:32;;;;;;;7.30;6.60;;;;;;;24.24;53.07;93613.96;828569;71;30319;-75
2021/07/18 05:01:08;;;;;;;6.17;5.63;;;;;;;25.18;48.44;93611.27;828153;71;29691;-74
2021/07/18 05:16:08;;;;;;;6.80;6.10;;;;;;;26.13;45.94;93611.52;828212;71;28693;-74
2021/07/18 05:31:08;;;;;;;7.80;6.30;;;;;;;26.60;45.23;93649.77;828287;71;28966;-74
2021/07/18 05:46:14;;;;;;;7.60;6.90;;;;;;;27.10;44.89;93628.66;828401;71;31804;-76
2021/07/18 06:01:07;;;;;;;8.73;7.10;;;;;;;;;;828150;71;28375;-75
2021/07/18 06:16:08;;;;;;;8.60;6.70;;;;;;;27.57;44.78;93627.92;829167;71;28611;-75
2021/07/18 06:31:08;;;;;;;10.10;8.10;;;;;;;27.78;44.38;93634.02;829370;71;28514;-75
2021/07/18 06:46:09;;;;;;;10.23;9.10;;;;;;;27.92;44.68;93606.75;833874;71;29283;-76
2021/07/18 07:01:10;;;;;;;8.80;8.10;;;;;;;28.16;44.21;93597.13;828734;71;28241;-77
2021/07/18 07:16:25;;;;;;;9.97;9.13;;;;;;;28.75;43.45;93602.02;839034;70;31873;-73
2021/07/18 07:31:16;;;;;;;12.13;9.67;;;;;;;28.86;43.15;93590.35;828952;71;27906;-75
2021/07/18 07:46:11;;;;;;;10.70;9.67;;;;;;;29.17;43.17;93589.91;828726;71;29440;-75
2021/07/18 08:01:08;;;;;;;10.60;9.43;;;;;;;29.18;42.04;93585.26;828370;71;27623;-74
2021/07/18 08:16:21;;;;;;;9.97;8.97;;;;;;;28.85;43.16;93567.22;834086;71;27334;-76
2021/07/18 08:31:20;;;;;;;10.87;9.90;;;;;;;29.50;42.12;93556.71;828050;71;28942;-76
2021/07/18 08:46:20;;;;;;;9.30;8.50;;;;;;;29.70;41.10;93536.18;828091;71;28254;-75
2021/07/18 08:47:23;;;;;;;8.57;7.80;;;;;;;29.75;40.24;93537.63;808584;73;24826;-77
2021/07/18 09:16:22;;;;;;;8.60;7.80;;;;;;;31.11;37.05;93528.97;828870;71;28185;-76
2021/07/18 09:31:34;;;;;;;7.70;7.10;;;;;;;31.31;35.83;93529.97;828161;71;29483;-75
2021/07/18 09:46:15;;;;;;;8.53;7.73;;;;;;;31.69;35.71;93514.02;828200;71;29746;-75
2021/07/18 10:01:22;;;;;;;10.33;6.80;;;;;;;31.88;34.70;93529.73;833929;71;32822;-76
2021/07/18 10:16:12;;;;;;;6.90;6.37;;;;;;;32.40;33.34;93496.61;828327;71;30166;-76
2021/07/18 10:31:34;;;;;;;7.30;6.70;;;;;;;31.61;33.52;93512.79;833859;71;33353;-74
2021/07/18 10:46:41;;;;;;;7.53;6.87;;;;;;;32.34;32.65;93508.09;828988;71;29784;-74
2021/07/18 11:01:31;;;;;;;7.47;6.90;;;;;;;32.35;31.99;93506.13;833967;71;30366;-77
2021/07/18 11:16:46;;;;;;;7.80;7.00;;;;;;;31.60;33.26;93482.03;827430;71;32908;-75
2021/07/18 11:31:29;;;;;;;7.40;6.67;;;;;;;31.17;33.71;93460.64;827283;71;32703;-77
2021/07/18 11:46:13;;;;;;;8.53;6.93;;;;;;;30.73;33.46;93432.39;828336;71;29759;-77
2021/07/18 12:01:12;;;;;;;8.27;7.40;;;;;;;30.46;34.05;93457.98;828108;71;30237;-76
2021/07/18 12:16:30;;;;;;;7.00;6.40;;;;;;;30.67;33.83;93449.06;827507;71;32765;-75
2021/07/18 12:31:39;;;;;;;7.30;6.70;;;;;;;31.51;33.33;93432.60;828294;71;29729;-76
2021/07/18 12:46:26;;;;;;;7.23;6.57;;;;;;;31.46;34.07;93402.73;833892;71;32637;-76
2021/07/18 13:01:18;;;;;;;7.67;6.87;;;;;;;31.67;34.69;93422.05;834043;71;29774;-75
2021/07/18 13:16:17;;;;;;;10.97;8.60;;;;;;;31.65;37.23;93404.12;828182;71;30123;-77
2021/07/18 13:31:22;;;;;;;7.50;6.93;;;;;;;30.80;34.84;93398.89;827466;71;32690;-77
2021/07/18 13:46:12;;;;;;;7.23;6.70;;;;;;;30.27;38.70;93377.98;833943;71;29688;-76
2021/07/18 14:01:10;;;;;;;8.27;7.60;;;;;;;29.91;38.56;93373.83;828993;71;30345;-76
2021/07/18 14:16:22;;;;;;;8.77;8.00;;;;;;;30.53;39.31;93349.39;829623;71;30037;-79
2021/07/18 14:31:26;;;;;;;9.93;8.83;;;;;;;30.21;40.44;93364.09;827411;71;32693;-76
2021/07/18 14:46:22;;;;;;;10.07;8.50;;;;;;;29.53;47.05;93369.87;835523;71;31861;-76
2021/07/18 15:16:08;;;;;;;11.63;10.33;;;;;;;28.26;57.36;93387.59;828195;71;29271;-75
2021/07/18 15:31:09;;;;;;;25.10;22.70;;;;;;;27.78;59.09;93370.54;828302;71;28705;-76
2021/07/18 15:46:17;;;;;;;12.83;11.83;;;;;;;27.64;57.29;93311.61;827425;71;33174;-74
2021/07/18 16:01:14;;;;;;;13.07;11.73;;;;;;;27.53;54.55;93340.17;827972;71;32206;-76
2021/07/18 16:16:16;;;;;;;12.70;11.60;;;;;;;27.34;58.52;93370.71;828294;71;31745;-76
2021/07/18 16:17:19;;;;;;;12.80;11.70;;;;;;;27.30;58.60;93372.14;809080;73;25989;-75
2021/07/18 16:31:10;;;;;;;16.53;12.57;;;;;;;27.10;56.48;93405.12;828050;71;29516;-76
2021/07/18 16:46:16;;;;;;;13.53;12.30;;;;;;;27.09;56.59;93442.64;833949;71;28897;-75
2021/07/18 17:01:12;;;;;;;12.90;11.80;;;;;;;;;;833986;71;28636;-76
2021/07/18 17:16:14;;;;;;;14.83;13.43;;;;;;;26.64;58.04;93506.48;828087;71;28812;-78
2021/07/18 17:31:16;;;;;;;14.47;12.90;;;;;;;26.19;57.45;93507.08;833969;71;31924;-76
2021/07/18 17:46:22;;;;;;;20.37;17.50;;;;;;;25.90;57.58;93521.62;835403;71;28321;-75
2021/07/18 18:01:21;;;;;;;11.70;10.70;;;;;;;25.55;58.11;93512.19;828147;71;28904;-74
2021/07/18 18:16:24;;;;;;;14.87;13.40;;;;;;;25.30;59.15;93568.94;828190;71;32065;-75
2021/07/18 18:31:17;;;;;;;11.97;10.77;;;;;;;25.12;59.55;93627.66;828747;71;29399;-74
2021/07/18 18:46:35;;;;;;;16.73;13.60;;;;;;;24.97;62.94;93642.39;827594;71;31757;-74
2021/07/18 19:01:21;;;;;;;11.93;10.77;;;;;;;24.43;65.92;93624.70;828138;71;31859;-74
2021/07/18 19:16:16;;;;;;;13.03;11.80;;;;;;;24.28;70.58;93628.09;827330;71;31850;-76
2021/07/18 19:31:24;;;;;;;12.17;11.07;;;;;;;24.04;68.15;93626.56;828099;71;29547;-76
2021/07/18 19:46:20;;;;;;;12.00;10.80;;;;;;;23.87;69.29;93657.70;822065;71;29058;-75
2021/07/18 20:01:39;;;;;;;13.17;11.97;;;;;;;23.86;69.08;93664.20;827293;71;31713;-75
2021/07/18 20:16:17;;;;;;;17.57;15.87;;;;;;;23.77;69.48;93667.91;828008;71;29270;-77
2021/07/18 20:31:20;;;;;;;12.33;11.20;;;;;;;23.74;69.16;93676.69;833871;71;28730;-72
2021/07/18 20:46:12;;;;;;;11.63;10.63;;;;;;;23.65;68.61;93683.83;828175;71;28646;-74
2021/07/18 21:16:11;;;;;;;14.13;12.77;;;;;;;22.98;71.11;93676.98;828151;71;28752;-74
2021/07/18 21:31:09;;;;;;;14.37;13.07;;;;;;;23.05;71.48;93686.17;828001;71;29267;-75
2021/07/18 21:46:15;;;;;;;15.50;13.90;;;;;;;22.90;72.21;93692.11;827224;71;31721;-75
2021/07/18 22:01:09;;;;;;;17.10;15.40;;;;;;;23.09;72.47;93685.00;828110;71;29250;-76
2021/07/18 22:16:09;;;;;;;14.43;13.13;;;;;;;23.24;72.64;93683.64;828118;71;28528;-76
2021/07/18 22:31:15;;;;;;;13.67;12.47;;;;;;;23.11;72.84;93688.64;827386;71;32321;-74
2021/07/18 22:46:18;;;;;;;15.07;13.67;;;;;;;22.80;73.84;93683.72;827345;71;32334;-75
2021/07/18 23:01:14;;;;;;;15.60;13.53;;;;;;;22.40;74.13;93669.66;827833;71;32712;-74
2021/07/18 23:16:29;;;;;;;14.20;12.90;;;;;;;21.94;74.39;93649.58;834101;71;28680;-76
2021/07/18 23:31:11;;;;;;;14.58;13.13;;;;;;;21.67;76.46;93644.56;828166;71;28810;-75
2021/07/18 23:46:10;;;;;;;15.80;13.60;;;;;;;21.80;76.78;93655.67;829441;71;29303;-79
